createdAt,value
2017-11-29T00:02:00.384Z,59.40
2017-11-29T00:04:27.978Z,67.57
2017-11-29T00:06:56.545Z,59.25
2017-11-29T00:09:24.432Z,72.18
2017-11-29T00:11:52.873Z,71.80
2017-11-29T00:14:20.402Z,62.47
2017-11-29T00:16:47.995Z,68.03
2017-11-29T00:19:15.540Z,66.83
2017-11-29T00:21:43.097Z,71.22
2017-11-29T00:24:10.681Z,73.63
2017-11-29T00:26:38.959Z,66.80
2017-11-29T00:29:06.535Z,65.37
2017-11-29T00:31:34.876Z,63.00
2017-11-29T00:34:02.454Z,61.07
2017-11-29T00:36:30.050Z,71.12
2017-11-29T00:38:58.370Z,68.15
2017-11-29T00:41:25.897Z,55.37
2017-11-29T00:43:54.206Z,59.23
2017-11-29T00:46:21.741Z,56.67
2017-11-29T00:48:49.291Z,47.83
2017-11-29T00:51:16.857Z,44.33
2017-11-29T00:53:44.443Z,47.87
2017-11-29T00:56:12.034Z,44.55
2017-11-29T00:58:39.583Z,44.00
2017-11-29T01:01:08.059Z,39.05
2017-11-29T01:03:35.608Z,32.57
2017-11-29T01:06:03.180Z,34.95
2017-11-29T01:08:30.753Z,35.97
2017-11-29T01:10:59.066Z,25.48
2017-11-29T01:13:27.735Z,47.95
2017-11-29T01:15:56.071Z,23.98
2017-11-29T01:18:24.430Z,31.00
2017-11-29T01:20:51.972Z,35.43
2017-11-29T01:23:19.519Z,41.30
2017-11-29T01:25:47.113Z,53.08
2017-11-29T01:28:15.379Z,58.97
2017-11-29T01:30:43.015Z,49.35
2017-11-29T01:33:11.328Z,39.13
2017-11-29T01:35:39.437Z,42.50
2017-11-29T01:38:07.012Z,45.20
2017-11-29T01:40:35.330Z,27.67
2017-11-29T01:43:02.868Z,33.58
2017-11-29T01:45:32.430Z,37.90
2017-11-29T01:48:07.141Z,35.13
2017-11-29T01:50:34.703Z,39.33
2017-11-29T01:53:03.025Z,52.00
2017-11-29T01:55:31.389Z,50.30
2017-11-29T01:58:00.214Z,62.80
2017-11-29T02:00:27.815Z,67.18
2017-11-29T02:02:56.301Z,72.55
2017-11-29T02:05:23.814Z,72.72
2017-11-29T02:07:51.422Z,54.97
2017-11-29T02:10:19.140Z,60.80
2017-11-29T02:12:46.739Z,45.45
2017-11-29T02:15:14.293Z,64.68
2017-11-29T02:17:41.807Z,54.10
2017-11-29T02:20:09.407Z,63.28
2017-11-29T02:22:37.841Z,72.85
2017-11-29T02:25:07.723Z,84.62
2017-11-29T02:27:36.089Z,89.53
2017-11-29T02:30:04.553Z,77.75
2017-11-29T02:32:32.104Z,84.78
2017-11-29T02:35:00.923Z,84.18
2017-11-29T02:37:28.476Z,85.75
2017-11-29T02:40:08.099Z,61.65
2017-11-29T02:42:37.494Z,78.78
2017-11-29T02:45:05.047Z,78.28
2017-11-29T02:47:32.664Z,76.35
2017-11-29T02:50:00.259Z,77.53
2017-11-29T02:52:27.793Z,76.32
2017-11-29T02:54:56.110Z,73.70
2017-11-29T02:57:23.697Z,92.65
2017-11-29T02:59:51.281Z,62.88
2017-11-29T03:02:19.814Z,50.67
2017-11-29T03:04:47.353Z,41.58
2017-11-29T03:07:14.894Z,55.05
2017-11-29T03:09:43.261Z,57.40
2017-11-29T03:12:11.620Z,55.33
2017-11-29T03:14:39.169Z,45.85
2017-11-29T03:17:06.731Z,39.33
2017-11-29T03:19:34.265Z,53.78
2017-11-29T03:22:01.824Z,29.02
2017-11-29T03:24:29.376Z,25.67
2017-11-29T03:26:56.944Z,25.62
2017-11-29T03:29:24.482Z,20.67
2017-11-29T03:31:52.035Z,19.90
2017-11-29T03:34:19.576Z,8.43
2017-11-29T03:36:47.865Z,5.95
2017-11-29T03:39:16.153Z,8.63
2017-11-29T03:41:43.683Z,8.15
2017-11-29T03:44:12.017Z,9.60
2017-11-29T03:46:40.400Z,6.07
2017-11-29T03:49:07.933Z,6.00
2017-11-29T03:51:35.487Z,10.88
2017-11-29T03:54:03.022Z,7.10
2017-11-29T03:56:31.352Z,8.35
2017-11-29T03:58:58.892Z,8.10
2017-11-29T04:01:26.452Z,7.30
2017-11-29T04:03:54.000Z,8.48
2017-11-29T04:06:21.546Z,9.52
2017-11-29T04:08:49.116Z,8.70
2017-11-29T04:11:16.644Z,11.95
2017-11-29T04:13:44.205Z,9.83
2017-11-29T04:16:12.537Z,12.30
2017-11-29T04:18:40.076Z,14.52
2017-11-29T04:21:07.624Z,20.00
2017-11-29T04:23:35.164Z,13.73
2017-11-29T04:26:03.492Z,13.15
2017-11-29T04:28:31.037Z,13.93
2017-11-29T04:30:58.599Z,15.85
2017-11-29T04:33:26.168Z,21.40
2017-11-29T04:35:53.719Z,15.07
2017-11-29T04:38:21.250Z,14.80
2017-11-29T04:40:48.798Z,19.65
2017-11-29T04:43:17.093Z,22.50
2017-11-29T04:45:44.621Z,25.85
2017-11-29T04:48:12.176Z,23.60
2017-11-29T04:50:39.714Z,26.17
2017-11-29T04:53:07.282Z,23.58
2017-11-29T04:55:34.875Z,24.80
2017-11-29T04:58:03.225Z,20.90
2017-11-29T05:00:30.795Z,23.45
2017-11-29T05:02:59.084Z,15.63
2017-11-29T05:05:27.417Z,16.42
2017-11-29T05:07:54.990Z,21.10
2017-11-29T05:10:22.538Z,21.83
2017-11-29T05:12:50.075Z,20.02
2017-11-29T05:15:17.609Z,21.40
2017-11-29T05:17:45.921Z,21.30
2017-11-29T05:20:13.514Z,26.95
2017-11-29T05:22:43.092Z,21.98
2017-11-29T05:25:10.688Z,26.30
2017-11-29T05:27:39.019Z,36.05
2017-11-29T05:30:06.556Z,35.88
2017-11-29T05:32:34.102Z,32.40
2017-11-29T05:35:01.683Z,37.78
2017-11-29T05:37:30.092Z,39.72
2017-11-29T05:39:57.632Z,43.35
2017-11-29T05:42:25.183Z,39.60
2017-11-29T05:44:52.709Z,50.80
2017-11-29T05:47:21.401Z,55.85
2017-11-29T05:49:48.952Z,51.65
2017-11-29T05:52:17.279Z,48.10
2017-11-29T05:54:44.821Z,52.38
2017-11-29T05:57:12.396Z,54.22
2017-11-29T05:59:39.967Z,60.70
2017-11-29T06:02:07.684Z,68.45
2017-11-29T06:04:35.242Z,56.72
2017-11-29T06:07:02.832Z,53.80
2017-11-29T06:09:30.412Z,55.42
2017-11-29T06:11:59.231Z,57.08
2017-11-29T06:14:27.584Z,47.55
2017-11-29T06:16:55.191Z,54.78
2017-11-29T06:19:22.727Z,49.33
2017-11-29T06:21:52.309Z,50.25
2017-11-29T06:24:19.799Z,52.00
2017-11-29T06:26:48.168Z,51.95
2017-11-29T06:29:16.397Z,46.88
2017-11-29T06:31:45.554Z,51.05
2017-11-29T06:34:13.857Z,49.13
2017-11-29T06:36:41.421Z,47.75
2017-11-29T06:39:08.956Z,45.63
2017-11-29T06:41:36.582Z,49.40
2017-11-29T06:44:04.098Z,49.88
2017-11-29T06:46:31.607Z,49.63
2017-11-29T06:48:59.935Z,49.55
2017-11-29T06:51:27.527Z,48.97
2017-11-29T06:53:55.095Z,51.58
2017-11-29T06:56:22.665Z,42.17
2017-11-29T06:58:50.981Z,41.37
2017-11-29T07:01:18.521Z,39.10
2017-11-29T07:03:46.084Z,45.33
2017-11-29T07:06:13.640Z,38.72
2017-11-29T07:08:41.151Z,43.60
2017-11-29T07:11:08.745Z,34.50
2017-11-29T07:13:37.069Z,35.83
2017-11-29T07:16:04.644Z,37.72
2017-11-29T07:18:32.213Z,32.00
2017-11-29T07:20:59.785Z,28.15
2017-11-29T07:23:28.174Z,32.28
2017-11-29T07:25:55.802Z,32.67
2017-11-29T07:28:23.410Z,32.08
2017-11-29T18:17:49.740Z,23.10
2017-11-29T18:20:18.002Z,20.10
2017-11-29T18:22:46.424Z,23.52
2017-11-29T18:25:14.729Z,31.83
2017-11-29T18:27:42.990Z,33.70
2017-11-29T18:30:11.252Z,36.53
2017-11-29T18:32:40.279Z,29.45
2017-11-29T18:35:08.565Z,35.13
2017-11-29T18:37:36.900Z,32.75
2017-11-29T18:40:05.199Z,29.50
2017-11-29T18:42:33.455Z,33.53
2017-11-29T18:45:02.479Z,34.60
2017-11-29T18:47:30.731Z,33.92
2017-11-29T18:49:58.998Z,31.00
2017-11-29T18:52:27.316Z,28.90
2017-11-29T18:54:55.583Z,30.15
2017-11-29T18:57:23.843Z,29.45
2017-11-29T18:59:52.106Z,27.40
2017-11-29T19:02:20.384Z,26.87
2017-11-29T19:04:48.659Z,27.25
2017-11-29T19:07:17.666Z,30.58
2017-11-29T19:09:45.935Z,24.23
2017-11-29T19:12:14.192Z,27.73
2017-11-29T19:14:43.223Z,28.85
2017-11-29T19:17:11.481Z,27.55
2017-11-29T19:19:39.740Z,27.30
2017-11-29T19:22:08.764Z,28.73
2017-11-29T19:24:37.011Z,24.77
2017-11-29T19:27:05.373Z,24.58
2017-11-29T19:29:34.403Z,25.10
2017-11-29T19:32:02.675Z,24.25
2017-11-29T19:34:31.576Z,25.25
2017-11-29T19:36:59.844Z,20.80
2017-11-29T19:39:30.063Z,21.75
2017-11-29T19:41:58.348Z,20.88
2017-11-29T19:44:27.370Z,18.42
2017-11-29T19:47:09.204Z,22.60
2017-11-29T19:49:39.382Z,25.65
2017-11-29T19:52:07.672Z,20.50
2017-11-29T19:54:35.927Z,26.70
2017-11-29T19:57:04.199Z,29.35
2017-11-29T19:59:32.475Z,43.13
2017-11-29T20:02:00.734Z,45.97
2017-11-29T20:04:28.983Z,47.95
2017-11-29T20:07:05.163Z,37.75
2017-11-29T20:09:33.606Z,50.40
2017-11-29T20:12:02.003Z,45.08
2017-11-29T20:14:31.111Z,51.20
2017-11-29T20:16:59.385Z,49.70
2017-11-29T20:19:27.645Z,61.63
2017-11-29T20:21:57.009Z,92.75
2017-11-29T20:24:25.343Z,98.20
2017-11-29T20:26:53.768Z,105.80
2017-11-29T20:29:22.147Z,109.05
2017-11-29T20:31:50.551Z,94.10
2017-11-29T20:34:19.669Z,97.45
2017-11-29T20:36:48.065Z,94.47
2017-11-29T20:39:16.463Z,97.97
2017-11-29T20:41:44.820Z,86.07
2017-11-29T20:44:13.177Z,87.37
2017-11-29T20:46:41.533Z,106.25
2017-11-29T20:49:10.657Z,86.00
2017-11-29T20:51:38.979Z,87.70
2017-11-29T20:54:07.242Z,103.70
2017-11-29T20:56:35.507Z,104.22
2017-11-29T20:59:03.771Z,100.18
2017-11-29T21:01:32.089Z,94.30
2017-11-29T21:04:00.359Z,100.18
2017-11-29T21:06:28.624Z,105.78
2017-11-29T21:08:57.052Z,88.40
2017-11-29T21:11:26.291Z,86.60
2017-11-29T21:13:54.556Z,82.78
2017-11-29T21:16:22.826Z,95.32
2017-11-29T21:18:51.146Z,100.87
2017-11-29T21:21:19.407Z,96.97
2017-11-29T21:23:47.681Z,93.85
2017-11-29T21:26:16.026Z,97.32
2017-11-29T21:28:44.305Z,105.10
2017-11-29T21:31:12.572Z,100.55
2017-11-29T21:33:41.617Z,113.65
2017-11-29T21:36:09.879Z,99.20
2017-11-29T21:38:38.134Z,91.53
2017-11-29T21:41:06.603Z,95.53
2017-11-29T21:43:34.859Z,94.45
2017-11-29T21:46:03.893Z,93.00
2017-11-29T21:48:32.150Z,101.22
2017-11-29T21:51:00.421Z,97.28
2017-11-29T21:53:28.685Z,92.32
2017-11-29T21:55:57.712Z,81.15
2017-11-29T21:58:25.972Z,64.30
2017-11-29T22:00:54.243Z,85.47
2017-11-29T22:03:22.508Z,87.12
2017-11-29T22:05:51.579Z,82.78
2017-11-29T22:08:19.847Z,77.97
2017-11-29T22:10:48.108Z,69.20
2017-11-29T22:13:16.384Z,75.18
2017-11-29T22:15:44.679Z,81.53
2017-11-29T22:18:12.879Z,65.18
2017-11-29T22:20:41.918Z,65.15
2017-11-29T22:23:10.166Z,60.00
2017-11-29T22:25:38.437Z,60.97
2017-11-29T22:28:06.730Z,65.40
2017-11-29T22:30:35.809Z,64.20
2017-11-29T22:33:04.834Z,70.15
2017-11-29T22:35:33.109Z,52.40
2017-11-29T22:38:01.363Z,47.83
2017-11-29T22:40:29.631Z,46.75
2017-11-29T22:42:57.890Z,36.33
2017-11-29T22:45:26.926Z,32.75
2017-11-29T22:47:55.183Z,27.87
2017-11-29T22:50:23.439Z,22.65
2017-11-29T22:52:52.476Z,24.52
2017-11-29T22:55:20.735Z,23.75
2017-11-29T22:57:49.036Z,23.50
2017-11-29T23:00:28.091Z,25.35
2017-11-29T23:02:56.359Z,27.55
2017-11-29T23:05:24.625Z,32.17
2017-11-29T23:07:52.902Z,32.72
2017-11-29T23:10:21.157Z,31.95
2017-11-29T23:12:49.442Z,34.55
2017-11-29T23:15:17.731Z,33.83
2017-11-29T23:17:46.079Z,37.90
2017-11-29T23:20:14.377Z,46.75
2017-11-29T23:22:42.711Z,39.33
2017-11-29T23:25:11.034Z,46.55
2017-11-29T23:27:39.370Z,41.65
2017-11-29T23:30:07.716Z,25.05
2017-11-29T23:32:36.801Z,34.85
2017-11-29T23:35:05.140Z,56.42
2017-11-29T23:37:33.475Z,57.25
2017-11-29T23:40:01.817Z,67.80
2017-11-29T23:42:30.201Z,60.55
2017-11-29T23:44:58.516Z,70.37
2017-11-29T23:47:27.639Z,86.37
2017-11-29T23:49:55.951Z,59.95
2017-11-29T23:52:24.247Z,77.28
2017-11-29T23:54:53.372Z,68.85
2017-11-29T23:57:21.636Z,46.10
2017-11-29T23:59:50.722Z,43.08
